sensor_id;sensor_type;location;lat;lon;timestamp;temperature;humidity
20915;DHT22;10617;52.032;5.298;2022-12-07T00:01:44;4.60;99.90
20915;DHT22;10617;52.032;5.298;2022-12-07T00:05:46;4.60;99.90
20915;DHT22;10617;52.032;5.298;2022-12-07T00:09:48;4.60;99.90
20915;DHT22;10617;52.032;5.298;2022-12-07T00:13:53;4.60;99.90
20915;DHT22;10617;52.032;5.298;2022-12-07T00:17:55;4.60;99.90
20915;DHT22;10617;52.032;5.298;2022-12-07T00:21:56;4.60;99.90
20915;DHT22;10617;52.032;5.298;2022-12-07T00:26:08;4.60;99.90
20915;DHT22;10617;52.032;5.298;2022-12-07T00:30:10;4.60;99.90
20915;DHT22;10617;52.032;5.298;2022-12-07T00:34:14;4.60;99.90
20915;DHT22;10617;52.032;5.298;2022-12-07T00:38:15;4.60;99.90
20915;DHT22;10617;52.032;5.298;2022-12-07T00:42:17;4.60;99.90
20915;DHT22;10617;52.032;5.298;2022-12-07T00:46:19;4.60;99.90
20915;DHT22;10617;52.032;5.298;2022-12-07T00:50:21;4.60;99.90
20915;DHT22;10617;52.032;5.298;2022-12-07T00:54:22;4.50;99.90
20915;DHT22;10617;52.032;5.298;2022-12-07T00:58:24;4.50;99.90
20915;DHT22;10617;52.032;5.298;2022-12-07T01:02:26;4.40;99.90
20915;DHT22;10617;52.032;5.298;2022-12-07T01:06:28;4.30;99.90
20915;DHT22;10617;52.032;5.298;2022-12-07T01:10:30;4.20;99.90
20915;DHT22;10617;52.032;5.298;2022-12-07T01:14:33;4.10;99.90
20915;DHT22;10617;52.032;5.298;2022-12-07T01:18:35;4.10;99.90
20915;DHT22;10617;52.032;5.298;2022-12-07T01:22:37;4.00;99.90
20915;DHT22;10617;52.032;5.298;2022-12-07T01:26:39;3.90;99.90
20915;DHT22;10617;52.032;5.298;2022-12-07T01:30:40;3.80;99.90
20915;DHT22;10617;52.032;5.298;2022-12-07T01:34:42;3.70;99.90
20915;DHT22;10617;52.032;5.298;2022-12-07T01:38:44;3.60;99.90
20915;DHT22;10617;52.032;5.298;2022-12-07T01:42:46;3.60;99.90
20915;DHT22;10617;52.032;5.298;2022-12-07T01:46:49;3.60;99.90
20915;DHT22;10617;52.032;5.298;2022-12-07T01:50:51;3.50;99.90
20915;DHT22;10617;52.032;5.298;2022-12-07T01:54:54;3.50;99.90
20915;DHT22;10617;52.032;5.298;2022-12-07T01:58:58;3.50;99.90
20915;DHT22;10617;52.032;5.298;2022-12-07T02:03:04;3.50;99.90
20915;DHT22;10617;52.032;5.298;2022-12-07T02:07:06;3.50;99.90
20915;DHT22;10617;52.032;5.298;2022-12-07T02:11:08;3.50;99.90
20915;DHT22;10617;52.032;5.298;2022-12-07T02:15:10;3.40;99.90
20915;DHT22;10617;52.032;5.298;2022-12-07T02:19:32;3.40;99.90
20915;DHT22;10617;52.032;5.298;2022-12-07T02:27:53;3.40;99.90
20915;DHT22;10617;52.032;5.298;2022-12-07T02:32:59;3.50;99.90
20915;DHT22;10617;52.032;5.298;2022-12-07T02:36:30;3.50;99.90
20915;DHT22;10617;52.032;5.298;2022-12-07T02:40:36;3.60;99.90
20915;DHT22;10617;52.032;5.298;2022-12-07T02:44:39;3.60;99.90
20915;DHT22;10617;52.032;5.298;2022-12-07T02:48:41;3.70;99.90
20915;DHT22;10617;52.032;5.298;2022-12-07T02:52:44;3.70;99.90
20915;DHT22;10617;52.032;5.298;2022-12-07T03:11:03;3.80;99.90
20915;DHT22;10617;52.032;5.298;2022-12-07T03:15:08;3.70;99.90
20915;DHT22;10617;52.032;5.298;2022-12-07T03:19:15;3.60;99.90
20915;DHT22;10617;52.032;5.298;2022-12-07T03:23:18;3.60;99.90
20915;DHT22;10617;52.032;5.298;2022-12-07T03:27:22;3.60;99.90
20915;DHT22;10617;52.032;5.298;2022-12-07T03:31:26;3.60;99.90
20915;DHT22;10617;52.032;5.298;2022-12-07T03:35:38;3.50;99.90
20915;DHT22;10617;52.032;5.298;2022-12-07T03:39:45;3.60;99.90
20915;DHT22;10617;52.032;5.298;2022-12-07T03:43:47;3.60;99.90
20915;DHT22;10617;52.032;5.298;2022-12-07T03:47:54;3.60;99.90
20915;DHT22;10617;52.032;5.298;2022-12-07T03:56:03;3.40;99.90
20915;DHT22;10617;52.032;5.298;2022-12-07T04:00:06;3.40;99.90
20915;DHT22;10617;52.032;5.298;2022-12-07T04:04:08;3.30;99.90
20915;DHT22;10617;52.032;5.298;2022-12-07T04:08:09;3.20;99.90
20915;DHT22;10617;52.032;5.298;2022-12-07T04:12:11;3.20;99.90
20915;DHT22;10617;52.032;5.298;2022-12-07T04:16:13;3.20;99.90
20915;DHT22;10617;52.032;5.298;2022-12-07T04:20:14;3.20;99.90
20915;DHT22;10617;52.032;5.298;2022-12-07T04:24:16;3.20;99.90
20915;DHT22;10617;52.032;5.298;2022-12-07T04:28:18;3.10;99.90
20915;DHT22;10617;52.032;5.298;2022-12-07T04:32:19;3.10;99.90
20915;DHT22;10617;52.032;5.298;2022-12-07T04:36:21;3.00;99.90
20915;DHT22;10617;52.032;5.298;2022-12-07T04:40:23;3.00;99.90
20915;DHT22;10617;52.032;5.298;2022-12-07T04:44:25;3.00;99.90
20915;DHT22;10617;52.032;5.298;2022-12-07T04:48:27;2.90;99.90
20915;DHT22;10617;52.032;5.298;2022-12-07T04:52:28;2.80;99.90
20915;DHT22;10617;52.032;5.298;2022-12-07T04:56:30;2.90;99.90
20915;DHT22;10617;52.032;5.298;2022-12-07T05:00:32;2.90;99.90
20915;DHT22;10617;52.032;5.298;2022-12-07T05:04:34;2.90;99.90
20915;DHT22;10617;52.032;5.298;2022-12-07T05:08:36;2.90;99.90
20915;DHT22;10617;52.032;5.298;2022-12-07T05:12:37;2.80;99.90
20915;DHT22;10617;52.032;5.298;2022-12-07T05:16:40;2.80;99.90
20915;DHT22;10617;52.032;5.298;2022-12-07T05:20:42;2.80;99.90
20915;DHT22;10617;52.032;5.298;2022-12-07T05:24:43;2.80;99.90
20915;DHT22;10617;52.032;5.298;2022-12-07T05:28:49;2.80;99.90
20915;DHT22;10617;52.032;5.298;2022-12-07T05:32:52;2.80;99.90
20915;DHT22;10617;52.032;5.298;2022-12-07T05:36:54;2.80;99.90
20915;DHT22;10617;52.032;5.298;2022-12-07T05:40:59;2.80;99.90
20915;DHT22;10617;52.032;5.298;2022-12-07T05:45:02;2.80;99.90
20915;DHT22;10617;52.032;5.298;2022-12-07T05:49:04;2.80;99.90
20915;DHT22;10617;52.032;5.298;2022-12-07T05:53:06;2.80;99.90
20915;DHT22;10617;52.032;5.298;2022-12-07T05:57:07;2.80;99.90
20915;DHT22;10617;52.032;5.298;2022-12-07T06:01:09;2.80;99.90
20915;DHT22;10617;52.032;5.298;2022-12-07T06:05:11;2.80;99.90
20915;DHT22;10617;52.032;5.298;2022-12-07T06:09:12;2.80;99.90
20915;DHT22;10617;52.032;5.298;2022-12-07T06:13:14;2.80;99.90
20915;DHT22;10617;52.032;5.298;2022-12-07T06:17:16;2.80;99.90
20915;DHT22;10617;52.032;5.298;2022-12-07T06:21:18;2.80;99.90
20915;DHT22;10617;52.032;5.298;2022-12-07T06:25:19;2.70;99.90
20915;DHT22;10617;52.032;5.298;2022-12-07T06:29:21;2.70;99.90
20915;DHT22;10617;52.032;5.298;2022-12-07T06:33:23;2.60;99.90
20915;DHT22;10617;52.032;5.298;2022-12-07T06:37:25;2.50;99.90
20915;DHT22;10617;52.032;5.298;2022-12-07T06:41:26;2.50;99.90
20915;DHT22;10617;52.032;5.298;2022-12-07T06:45:28;2.50;99.90
20915;DHT22;10617;52.032;5.298;2022-12-07T06:49:30;2.40;99.90
20915;DHT22;10617;52.032;5.298;2022-12-07T06:53:31;2.50;99.90
20915;DHT22;10617;52.032;5.298;2022-12-07T06:57:33;2.50;99.90
20915;DHT22;10617;52.032;5.298;2022-12-07T07:01:35;2.40;99.90
20915;DHT22;10617;52.032;5.298;2022-12-07T07:05:37;2.40;99.90
20915;DHT22;10617;52.032;5.298;2022-12-07T07:09:38;2.30;99.90
20915;DHT22;10617;52.032;5.298;2022-12-07T07:23:47;2.30;99.90
20915;DHT22;10617;52.032;5.298;2022-12-07T07:27:48;2.20;99.90
20915;DHT22;10617;52.032;5.298;2022-12-07T07:31:50;2.30;99.90
20915;DHT22;10617;52.032;5.298;2022-12-07T07:35:51;2.30;99.90
20915;DHT22;10617;52.032;5.298;2022-12-07T07:39:53;2.30;99.90
20915;DHT22;10617;52.032;5.298;2022-12-07T07:43:55;2.20;99.90
20915;DHT22;10617;52.032;5.298;2022-12-07T07:47:56;2.20;99.90
20915;DHT22;10617;52.032;5.298;2022-12-07T07:51:58;2.20;99.90
20915;DHT22;10617;52.032;5.298;2022-12-07T07:56:00;2.10;99.90
20915;DHT22;10617;52.032;5.298;2022-12-07T08:00:03;2.10;99.90
20915;DHT22;10617;52.032;5.298;2022-12-07T08:04:05;2.10;99.90
20915;DHT22;10617;52.032;5.298;2022-12-07T08:08:07;2.10;99.90
20915;DHT22;10617;52.032;5.298;2022-12-07T08:12:09;2.00;99.90
20915;DHT22;10617;52.032;5.298;2022-12-07T08:16:10;2.00;99.90
20915;DHT22;10617;52.032;5.298;2022-12-07T08:20:12;2.00;99.90
20915;DHT22;10617;52.032;5.298;2022-12-07T08:24:14;2.10;99.90
20915;DHT22;10617;52.032;5.298;2022-12-07T08:28:16;2.10;99.90
20915;DHT22;10617;52.032;5.298;2022-12-07T08:32:18;2.10;99.90
20915;DHT22;10617;52.032;5.298;2022-12-07T08:36:20;2.20;99.90
20915;DHT22;10617;52.032;5.298;2022-12-07T08:40:23;2.20;99.90
20915;DHT22;10617;52.032;5.298;2022-12-07T08:44:24;2.40;99.90
20915;DHT22;10617;52.032;5.298;2022-12-07T08:48:26;2.50;99.90
20915;DHT22;10617;52.032;5.298;2022-12-07T08:52:28;2.70;99.90
20915;DHT22;10617;52.032;5.298;2022-12-07T08:56:31;2.80;99.90
20915;DHT22;10617;52.032;5.298;2022-12-07T09:00:33;3.00;99.90
20915;DHT22;10617;52.032;5.298;2022-12-07T09:04:34;3.10;99.90
20915;DHT22;10617;52.032;5.298;2022-12-07T09:08:37;3.20;99.90
20915;DHT22;10617;52.032;5.298;2022-12-07T09:12:39;3.30;99.90
20915;DHT22;10617;52.032;5.298;2022-12-07T09:16:41;3.40;99.90
20915;DHT22;10617;52.032;5.298;2022-12-07T09:20:42;3.50;99.90
20915;DHT22;10617;52.032;5.298;2022-12-07T09:24:44;3.50;99.90
20915;DHT22;10617;52.032;5.298;2022-12-07T09:28:46;3.60;99.90
20915;DHT22;10617;52.032;5.298;2022-12-07T09:32:48;3.80;99.90
20915;DHT22;10617;52.032;5.298;2022-12-07T09:36:50;3.90;99.90
20915;DHT22;10617;52.032;5.298;2022-12-07T09:40:52;4.10;99.90
20915;DHT22;10617;52.032;5.298;2022-12-07T09:44:53;4.20;99.90
20915;DHT22;10617;52.032;5.298;2022-12-07T09:48:55;4.30;99.90
20915;DHT22;10617;52.032;5.298;2022-12-07T09:53:08;4.40;99.90
20915;DHT22;10617;52.032;5.298;2022-12-07T09:57:10;4.60;99.90
20915;DHT22;10617;52.032;5.298;2022-12-07T10:01:14;4.90;99.90
20915;DHT22;10617;52.032;5.298;2022-12-07T10:05:24;5.20;99.90
20915;DHT22;10617;52.032;5.298;2022-12-07T10:14:33;5.60;99.90
20915;DHT22;10617;52.032;5.298;2022-12-07T10:18:55;5.60;99.90
20915;DHT22;10617;52.032;5.298;2022-12-07T10:26:58;5.80;99.90
20915;DHT22;10617;52.032;5.298;2022-12-07T10:31:01;6.00;99.90
20915;DHT22;10617;52.032;5.298;2022-12-07T10:39:21;6.40;99.90
20915;DHT22;10617;52.032;5.298;2022-12-07T10:43:23;6.40;99.90
20915;DHT22;10617;52.032;5.298;2022-12-07T10:47:33;6.40;99.90
20915;DHT22;10617;52.032;5.298;2022-12-07T10:51:54;6.40;99.90
20915;DHT22;10617;52.032;5.298;2022-12-07T10:56:04;7.00;99.90
20915;DHT22;10617;52.032;5.298;2022-12-07T11:00:18;8.30;99.90
20915;DHT22;10617;52.032;5.298;2022-12-07T11:39:33;7.20;99.90
20915;DHT22;10617;52.032;5.298;2022-12-07T11:43:36;7.00;99.90
20915;DHT22;10617;52.032;5.298;2022-12-07T11:47:48;6.90;99.90
20915;DHT22;10617;52.032;5.298;2022-12-07T11:51:53;6.80;99.90
20915;DHT22;10617;52.032;5.298;2022-12-07T11:56:03;6.90;99.90
20915;DHT22;10617;52.032;5.298;2022-12-07T12:00:12;7.20;99.90
20915;DHT22;10617;52.032;5.298;2022-12-07T12:33:34;11.70;99.90
20915;DHT22;10617;52.032;5.298;2022-12-07T12:45:40;11.30;99.90
20915;DHT22;10617;52.032;5.298;2022-12-07T12:49:43;10.80;99.90
20915;DHT22;10617;52.032;5.298;2022-12-07T12:53:45;10.40;99.90
20915;DHT22;10617;52.032;5.298;2022-12-07T12:57:48;10.30;99.90
20915;DHT22;10617;52.032;5.298;2022-12-07T13:02:15;10.20;99.90
20915;DHT22;10617;52.032;5.298;2022-12-07T13:06:39;10.90;99.90
20915;DHT22;10617;52.032;5.298;2022-12-07T13:10:40;11.40;99.90
20915;DHT22;10617;52.032;5.298;2022-12-07T13:14:51;11.40;99.90
20915;DHT22;10617;52.032;5.298;2022-12-07T13:18:53;11.00;99.90
20915;DHT22;10617;52.032;5.298;2022-12-07T13:22:55;10.40;99.90
20915;DHT22;10617;52.032;5.298;2022-12-07T13:26:59;10.00;99.90
20915;DHT22;10617;52.032;5.298;2022-12-07T13:35:26;9.40;99.90
20915;DHT22;10617;52.032;5.298;2022-12-07T13:39:25;9.20;99.90
20915;DHT22;10617;52.032;5.298;2022-12-07T13:43:27;9.10;99.90
20915;DHT22;10617;52.032;5.298;2022-12-07T13:47:34;9.10;99.90
20915;DHT22;10617;52.032;5.298;2022-12-07T13:51:38;9.20;99.90
20915;DHT22;10617;52.032;5.298;2022-12-07T13:55:44;9.40;99.90
20915;DHT22;10617;52.032;5.298;2022-12-07T13:59:48;9.40;99.90
20915;DHT22;10617;52.032;5.298;2022-12-07T14:03:50;9.40;99.90
20915;DHT22;10617;52.032;5.298;2022-12-07T14:11:56;9.10;99.90
20915;DHT22;10617;52.032;5.298;2022-12-07T14:15:58;8.90;99.90
20915;DHT22;10617;52.032;5.298;2022-12-07T14:20:03;8.60;99.90
20915;DHT22;10617;52.032;5.298;2022-12-07T14:28:24;8.10;99.90
20915;DHT22;10617;52.032;5.298;2022-12-07T14:32:27;8.00;99.90
20915;DHT22;10617;52.032;5.298;2022-12-07T14:36:30;7.90;99.90
20915;DHT22;10617;52.032;5.298;2022-12-07T14:40:32;7.80;99.90
20915;DHT22;10617;52.032;5.298;2022-12-07T14:44:33;7.70;99.90
20915;DHT22;10617;52.032;5.298;2022-12-07T14:48:36;7.60;99.90
20915;DHT22;10617;52.032;5.298;2022-12-07T14:53:01;7.60;99.90
20915;DHT22;10617;52.032;5.298;2022-12-07T14:57:26;7.50;99.90
20915;DHT22;10617;52.032;5.298;2022-12-07T15:01:28;7.50;99.90
20915;DHT22;10617;52.032;5.298;2022-12-07T15:05:30;7.60;99.90
20915;DHT22;10617;52.032;5.298;2022-12-07T15:09:32;7.90;99.90
20915;DHT22;10617;52.032;5.298;2022-12-07T15:13:33;8.10;99.90
20915;DHT22;10617;52.032;5.298;2022-12-07T15:17:53;8.00;99.90
20915;DHT22;10617;52.032;5.298;2022-12-07T15:21:56;7.80;99.90
20915;DHT22;10617;52.032;5.298;2022-12-07T15:25:58;7.60;99.90
20915;DHT22;10617;52.032;5.298;2022-12-07T15:30:00;7.40;99.90
20915;DHT22;10617;52.032;5.298;2022-12-07T15:34:01;7.30;99.90
20915;DHT22;10617;52.032;5.298;2022-12-07T15:38:03;7.10;99.90
20915;DHT22;10617;52.032;5.298;2022-12-07T15:42:05;7.00;99.90
20915;DHT22;10617;52.032;5.298;2022-12-07T15:46:07;6.90;99.90
20915;DHT22;10617;52.032;5.298;2022-12-07T15:50:09;6.80;99.90
20915;DHT22;10617;52.032;5.298;2022-12-07T15:54:12;6.70;99.90
20915;DHT22;10617;52.032;5.298;2022-12-07T15:58:14;6.60;99.90
20915;DHT22;10617;52.032;5.298;2022-12-07T16:02:15;6.60;99.90
20915;DHT22;10617;52.032;5.298;2022-12-07T16:06:17;6.50;99.90
20915;DHT22;10617;52.032;5.298;2022-12-07T16:10:19;6.50;99.90
20915;DHT22;10617;52.032;5.298;2022-12-07T16:14:21;6.40;99.90
20915;DHT22;10617;52.032;5.298;2022-12-07T16:18:22;6.40;99.90
20915;DHT22;10617;52.032;5.298;2022-12-07T16:22:24;6.30;99.90
20915;DHT22;10617;52.032;5.298;2022-12-07T16:26:26;6.30;99.90
20915;DHT22;10617;52.032;5.298;2022-12-07T16:30:27;6.20;99.90
20915;DHT22;10617;52.032;5.298;2022-12-07T16:34:29;6.20;99.90
20915;DHT22;10617;52.032;5.298;2022-12-07T16:38:30;6.20;99.90
20915;DHT22;10617;52.032;5.298;2022-12-07T16:42:33;6.20;99.90
20915;DHT22;10617;52.032;5.298;2022-12-07T16:46:35;6.10;99.90
20915;DHT22;10617;52.032;5.298;2022-12-07T16:50:39;6.10;99.90
20915;DHT22;10617;52.032;5.298;2022-12-07T16:54:41;6.10;99.90
20915;DHT22;10617;52.032;5.298;2022-12-07T16:58:42;6.10;99.90
20915;DHT22;10617;52.032;5.298;2022-12-07T17:02:44;6.10;99.90
20915;DHT22;10617;52.032;5.298;2022-12-07T17:06:46;6.10;99.90
20915;DHT22;10617;52.032;5.298;2022-12-07T17:10:47;6.00;99.90
20915;DHT22;10617;52.032;5.298;2022-12-07T17:14:49;6.00;99.90
20915;DHT22;10617;52.032;5.298;2022-12-07T17:19:11;5.90;99.90
20915;DHT22;10617;52.032;5.298;2022-12-07T17:23:12;5.90;99.90
20915;DHT22;10617;52.032;5.298;2022-12-07T17:27:14;5.90;99.90
20915;DHT22;10617;52.032;5.298;2022-12-07T17:31:16;5.80;99.90
20915;DHT22;10617;52.032;5.298;2022-12-07T17:35:18;5.80;99.90
20915;DHT22;10617;52.032;5.298;2022-12-07T17:39:20;5.70;99.90
20915;DHT22;10617;52.032;5.298;2022-12-07T17:43:21;5.70;99.90
20915;DHT22;10617;52.032;5.298;2022-12-07T17:47:23;5.70;99.90
20915;DHT22;10617;52.032;5.298;2022-12-07T17:51:25;5.70;99.90
20915;DHT22;10617;52.032;5.298;2022-12-07T17:55:45;5.70;99.90
20915;DHT22;10617;52.032;5.298;2022-12-07T18:00:09;5.70;99.90
20915;DHT22;10617;52.032;5.298;2022-12-07T18:04:11;5.60;99.90
20915;DHT22;10617;52.032;5.298;2022-12-07T18:08:13;5.60;99.90
20915;DHT22;10617;52.032;5.298;2022-12-07T18:12:15;5.50;99.90
20915;DHT22;10617;52.032;5.298;2022-12-07T18:16:18;5.50;99.90
20915;DHT22;10617;52.032;5.298;2022-12-07T18:20:20;5.60;99.90
20915;DHT22;10617;52.032;5.298;2022-12-07T18:28:58;5.70;99.90
20915;DHT22;10617;52.032;5.298;2022-12-07T18:33:00;5.70;99.90
20915;DHT22;10617;52.032;5.298;2022-12-07T18:37:02;5.70;99.90
20915;DHT22;10617;52.032;5.298;2022-12-07T18:41:06;5.60;99.90
20915;DHT22;10617;52.032;5.298;2022-12-07T18:45:08;5.60;99.90
20915;DHT22;10617;52.032;5.298;2022-12-07T18:49:13;5.60;99.90
20915;DHT22;10617;52.032;5.298;2022-12-07T18:53:15;5.60;99.90
20915;DHT22;10617;52.032;5.298;2022-12-07T18:57:16;5.60;99.90
20915;DHT22;10617;52.032;5.298;2022-12-07T19:01:18;5.50;99.90
20915;DHT22;10617;52.032;5.298;2022-12-07T19:05:20;5.50;99.90
20915;DHT22;10617;52.032;5.298;2022-12-07T19:09:22;5.50;99.90
20915;DHT22;10617;52.032;5.298;2022-12-07T19:13:23;5.50;99.90
20915;DHT22;10617;52.032;5.298;2022-12-07T19:17:25;5.50;99.90
20915;DHT22;10617;52.032;5.298;2022-12-07T19:21:27;5.50;99.90
20915;DHT22;10617;52.032;5.298;2022-12-07T19:25:28;5.50;99.90
20915;DHT22;10617;52.032;5.298;2022-12-07T19:29:30;5.50;99.90
20915;DHT22;10617;52.032;5.298;2022-12-07T19:33:32;5.50;99.90
20915;DHT22;10617;52.032;5.298;2022-12-07T19:37:34;5.50;99.90
20915;DHT22;10617;52.032;5.298;2022-12-07T19:41:35;5.50;99.90
20915;DHT22;10617;52.032;5.298;2022-12-07T19:45:39;5.50;99.90
20915;DHT22;10617;52.032;5.298;2022-12-07T20:00:06;5.50;99.90
20915;DHT22;10617;52.032;5.298;2022-12-07T20:04:12;5.50;99.90
20915;DHT22;10617;52.032;5.298;2022-12-07T20:08:14;5.50;99.90
20915;DHT22;10617;52.032;5.298;2022-12-07T20:12:15;5.50;99.90
20915;DHT22;10617;52.032;5.298;2022-12-07T20:16:36;5.50;99.90
20915;DHT22;10617;52.032;5.298;2022-12-07T20:20:40;5.40;99.90
20915;DHT22;10617;52.032;5.298;2022-12-07T20:29:47;5.30;99.90
20915;DHT22;10617;52.032;5.298;2022-12-07T20:33:51;5.30;99.90
20915;DHT22;10617;52.032;5.298;2022-12-07T20:37:55;5.20;99.90
20915;DHT22;10617;52.032;5.298;2022-12-07T20:41:57;5.20;99.90
20915;DHT22;10617;52.032;5.298;2022-12-07T20:46:17;5.20;99.90
20915;DHT22;10617;52.032;5.298;2022-12-07T20:50:19;5.10;99.90
20915;DHT22;10617;52.032;5.298;2022-12-07T20:54:21;5.10;99.90
20915;DHT22;10617;52.032;5.298;2022-12-07T20:58:23;5.10;99.90
20915;DHT22;10617;52.032;5.298;2022-12-07T21:02:28;5.00;99.90
20915;DHT22;10617;52.032;5.298;2022-12-07T21:06:30;5.00;99.90
20915;DHT22;10617;52.032;5.298;2022-12-07T21:10:32;5.00;99.90
20915;DHT22;10617;52.032;5.298;2022-12-07T21:14:33;4.90;99.90
20915;DHT22;10617;52.032;5.298;2022-12-07T21:18:35;4.90;99.90
20915;DHT22;10617;52.032;5.298;2022-12-07T21:22:38;4.90;99.90
20915;DHT22;10617;52.032;5.298;2022-12-07T21:26:40;4.90;99.90
20915;DHT22;10617;52.032;5.298;2022-12-07T21:30:41;4.90;99.90
20915;DHT22;10617;52.032;5.298;2022-12-07T21:35:03;4.90;99.90
20915;DHT22;10617;52.032;5.298;2022-12-07T21:39:05;4.90;99.90
20915;DHT22;10617;52.032;5.298;2022-12-07T21:43:06;4.80;99.90
20915;DHT22;10617;52.032;5.298;2022-12-07T21:47:08;4.80;99.90
20915;DHT22;10617;52.032;5.298;2022-12-07T21:51:11;4.80;99.90
20915;DHT22;10617;52.032;5.298;2022-12-07T21:55:13;4.70;99.90
20915;DHT22;10617;52.032;5.298;2022-12-07T21:59:15;4.70;99.90
20915;DHT22;10617;52.032;5.298;2022-12-07T22:03:18;4.70;99.90
20915;DHT22;10617;52.032;5.298;2022-12-07T22:07:20;4.60;99.90
20915;DHT22;10617;52.032;5.298;2022-12-07T22:11:21;4.60;99.90
20915;DHT22;10617;52.032;5.298;2022-12-07T22:15:23;4.60;99.90
20915;DHT22;10617;52.032;5.298;2022-12-07T22:19:25;4.50;99.90
20915;DHT22;10617;52.032;5.298;2022-12-07T22:23:27;4.50;99.90
20915;DHT22;10617;52.032;5.298;2022-12-07T22:27:28;4.50;99.90
20915;DHT22;10617;52.032;5.298;2022-12-07T22:31:30;4.50;99.90
20915;DHT22;10617;52.032;5.298;2022-12-07T22:35:32;4.50;99.90
20915;DHT22;10617;52.032;5.298;2022-12-07T22:39:33;4.50;99.90
20915;DHT22;10617;52.032;5.298;2022-12-07T22:43:35;4.60;99.90
20915;DHT22;10617;52.032;5.298;2022-12-07T22:47:38;4.60;99.90
20915;DHT22;10617;52.032;5.298;2022-12-07T22:51:40;4.60;99.90
20915;DHT22;10617;52.032;5.298;2022-12-07T22:55:42;4.60;99.90
20915;DHT22;10617;52.032;5.298;2022-12-07T22:59:43;4.60;99.90
20915;DHT22;10617;52.032;5.298;2022-12-07T23:03:45;4.60;99.90
20915;DHT22;10617;52.032;5.298;2022-12-07T23:07:47;4.60;99.90
20915;DHT22;10617;52.032;5.298;2022-12-07T23:11:48;4.70;99.90
20915;DHT22;10617;52.032;5.298;2022-12-07T23:16:28;4.70;99.90
20915;DHT22;10617;52.032;5.298;2022-12-07T23:20:31;4.70;99.90
20915;DHT22;10617;52.032;5.298;2022-12-07T23:24:32;4.70;99.90
20915;DHT22;10617;52.032;5.298;2022-12-07T23:28:34;4.70;99.90
20915;DHT22;10617;52.032;5.298;2022-12-07T23:32:36;4.70;99.90
20915;DHT22;10617;52.032;5.298;2022-12-07T23:36:38;4.70;99.90
20915;DHT22;10617;52.032;5.298;2022-12-07T23:40:40;4.70;99.90
20915;DHT22;10617;52.032;5.298;2022-12-07T23:54:48;4.80;99.90
20915;DHT22;10617;52.032;5.298;2022-12-07T23:58:50;4.80;99.90
